createdAt,value
2023-01-18T00:01:38.662Z,12.60
2023-01-18T00:04:40.283Z,6.93
2023-01-18T00:07:42.014Z,8.73
2023-01-18T00:10:43.704Z,8.00
2023-01-18T00:13:45.959Z,8.83
2023-01-18T00:16:47.568Z,9.50
2023-01-18T00:19:49.160Z,10.60
2023-01-18T00:22:51.119Z,5.53
2023-01-18T00:25:52.734Z,6.97
2023-01-18T00:28:55.860Z,9.13
2023-01-18T00:31:57.562Z,10.33
2023-01-18T00:35:00.398Z,7.93
2023-01-18T00:38:01.942Z,17.17
2023-01-18T00:41:03.748Z,7.57
2023-01-18T00:44:06.915Z,9.07
2023-01-18T00:47:08.452Z,9.47
2023-01-18T00:50:10.473Z,5.70
2023-01-18T00:53:12.101Z,6.80
2023-01-18T00:56:15.678Z,11.17
2023-01-18T00:59:17.305Z,6.83
2023-01-18T01:02:18.883Z,11.73
2023-01-18T01:05:40.343Z,6.63
2023-01-18T01:08:50.464Z,12.83
2023-01-18T01:12:11.438Z,9.20
2023-01-18T01:15:31.479Z,9.97
2023-01-18T01:18:51.771Z,11.20
2023-01-18T01:22:12.002Z,7.60
2023-01-18T01:25:32.230Z,7.87
2023-01-18T01:28:41.088Z,10.93
2023-01-18T01:31:42.704Z,8.63
2023-01-18T01:34:44.434Z,6.83
2023-01-18T01:37:45.979Z,11.67
2023-01-18T01:40:55.530Z,7.37
2023-01-18T01:43:58.360Z,7.63
2023-01-18T01:47:05.121Z,7.50
2023-01-18T01:50:15.286Z,9.83
2023-01-18T01:53:16.958Z,7.20
2023-01-18T01:56:19.944Z,10.70
2023-01-18T01:59:21.897Z,12.83
2023-01-18T02:02:23.709Z,12.13
2023-01-18T02:05:25.581Z,7.50
2023-01-18T02:08:28.212Z,6.17
2023-01-18T02:11:29.823Z,13.23
2023-01-18T02:14:31.882Z,11.27
2023-01-18T02:17:49.615Z,7.23
2023-01-18T02:21:23.601Z,5.27
2023-01-18T02:24:40.396Z,9.83
2023-01-18T02:27:51.189Z,11.07
2023-01-18T02:30:52.858Z,7.30
2023-01-18T02:33:57.615Z,6.87
2023-01-18T02:37:11.532Z,9.10
2023-01-18T02:40:28.757Z,7.83
2023-01-18T02:43:50.439Z,6.20
2023-01-18T02:46:52.039Z,8.10
2023-01-18T02:49:53.632Z,11.47
2023-01-18T02:52:55.555Z,9.47
2023-01-18T02:56:06.553Z,10.20
2023-01-18T02:59:26.915Z,12.50
2023-01-18T03:02:28.697Z,15.20
2023-01-18T03:05:31.070Z,12.23
2023-01-18T03:08:35.657Z,9.07
2023-01-18T03:11:45.249Z,8.43
2023-01-18T03:14:52.789Z,8.60
2023-01-18T03:17:57.423Z,8.90
2023-01-18T03:20:59.011Z,12.03
2023-01-18T03:24:02.588Z,10.93
2023-01-18T03:27:22.905Z,7.83
2023-01-18T03:30:43.390Z,11.50
2023-01-18T03:33:50.242Z,16.63
2023-01-18T03:36:53.111Z,10.30
2023-01-18T03:39:56.757Z,10.33
2023-01-18T03:43:18.591Z,12.00
2023-01-18T03:46:21.547Z,10.70
2023-01-18T03:49:23.726Z,11.07
2023-01-18T03:52:29.098Z,9.33
2023-01-18T03:55:57.088Z,12.13
2023-01-18T03:59:00.847Z,9.20
2023-01-18T04:02:03.820Z,11.60
2023-01-18T04:05:05.761Z,14.03
2023-01-18T04:08:07.423Z,12.20
2023-01-18T04:11:09.083Z,9.37
2023-01-18T04:14:10.714Z,11.13
2023-01-18T04:17:12.377Z,19.20
2023-01-18T04:20:14.128Z,8.23
2023-01-18T04:23:15.890Z,13.40
2023-01-18T04:26:17.573Z,12.93
2023-01-18T04:29:19.158Z,12.97
2023-01-18T04:32:20.848Z,13.07
2023-01-18T04:35:22.441Z,12.83
2023-01-18T04:38:24.086Z,15.93
2023-01-18T04:41:25.798Z,10.00
2023-01-18T04:44:27.411Z,13.07
2023-01-18T04:47:31.869Z,14.87
2023-01-18T04:50:33.506Z,33.47
2023-01-18T04:53:35.151Z,20.83
2023-01-18T04:56:36.832Z,13.77
2023-01-18T04:59:39.354Z,23.63
2023-01-18T05:02:41.085Z,14.13
2023-01-18T05:05:42.768Z,15.70
2023-01-18T05:08:44.448Z,13.50
2023-01-18T05:11:46.001Z,11.60
2023-01-18T05:14:47.821Z,10.27
2023-01-18T05:17:53.070Z,11.43
2023-01-18T05:20:54.742Z,12.83
2023-01-18T05:23:56.426Z,17.87
2023-01-18T05:26:58.244Z,10.97
2023-01-18T05:29:59.925Z,14.20
2023-01-18T05:33:02.672Z,14.67
2023-01-18T05:36:04.571Z,16.20
2023-01-18T05:39:06.550Z,16.90
2023-01-18T05:42:08.550Z,18.33
2023-01-18T05:45:10.687Z,11.53
2023-01-18T05:48:12.598Z,14.80
2023-01-18T05:51:14.247Z,15.57
2023-01-18T05:54:15.900Z,13.87
2023-01-18T05:57:17.541Z,17.30
2023-01-18T06:00:19.377Z,12.83
2023-01-18T06:03:21.312Z,14.80
2023-01-18T06:06:22.948Z,15.80
2023-01-18T06:09:24.499Z,13.87
2023-01-18T06:12:26.189Z,9.97
2023-01-18T06:15:27.824Z,16.83
2023-01-18T06:18:31.220Z,11.87
2023-01-18T06:21:33.021Z,13.47
2023-01-18T06:24:34.715Z,7.87
2023-01-18T06:27:37.735Z,12.70
2023-01-18T06:30:39.448Z,15.23
2023-01-18T06:33:41.128Z,16.07
2023-01-18T06:36:45.134Z,13.97
2023-01-18T06:39:46.809Z,12.50
2023-01-18T06:42:48.868Z,16.90
2023-01-18T06:45:54.616Z,12.70
2023-01-18T06:48:56.352Z,13.63
2023-01-18T06:51:58.005Z,14.30
2023-01-18T06:54:59.691Z,12.90
2023-01-18T06:58:02.677Z,19.30
2023-01-18T07:01:08.152Z,11.50
2023-01-18T07:04:12.218Z,16.30
2023-01-18T07:07:14.264Z,12.63
2023-01-18T07:10:16.761Z,14.77
2023-01-18T07:13:19.016Z,13.17
2023-01-18T07:16:21.448Z,16.03
2023-01-18T07:19:23.226Z,19.43
2023-01-18T07:22:24.882Z,20.37
2023-01-18T07:25:27.698Z,18.07
2023-01-18T07:28:29.883Z,16.27
2023-01-18T07:31:31.994Z,19.80
2023-01-18T07:34:33.710Z,15.17
2023-01-18T07:37:36.134Z,14.27
2023-01-18T07:40:37.772Z,13.17
2023-01-18T07:43:39.591Z,15.30
2023-01-18T07:46:43.330Z,9.63
2023-01-18T07:49:44.974Z,14.63
2023-01-18T07:52:46.565Z,15.13
2023-01-18T07:55:48.652Z,15.43
2023-01-18T07:58:50.296Z,13.83
2023-01-18T08:01:51.904Z,22.83
2023-01-18T08:04:53.561Z,21.23
2023-01-18T08:07:55.458Z,12.10
2023-01-18T08:10:58.740Z,17.07
2023-01-18T08:14:00.785Z,12.33
2023-01-18T08:17:02.368Z,13.13
2023-01-18T08:20:05.780Z,18.00
2023-01-18T08:23:07.420Z,16.97
2023-01-18T08:26:10.601Z,12.63
2023-01-18T08:29:12.314Z,10.60
2023-01-18T08:32:14.054Z,14.00
2023-01-18T08:35:15.707Z,11.20
2023-01-18T08:38:17.284Z,15.20
2023-01-18T08:41:19.766Z,11.40
2023-01-18T08:44:21.465Z,14.67
2023-01-18T08:47:23.113Z,12.77
2023-01-18T08:50:25.232Z,14.57
2023-01-18T08:53:26.902Z,16.87
2023-01-18T08:56:28.774Z,8.40
2023-01-18T08:59:30.413Z,11.53
2023-01-18T09:02:32.860Z,12.13
2023-01-18T09:05:35.849Z,11.63
2023-01-18T09:08:37.572Z,16.67
2023-01-18T09:11:39.287Z,16.07
2023-01-18T09:14:41.035Z,11.90
2023-01-18T09:17:42.646Z,8.97
2023-01-18T09:20:44.476Z,14.17
2023-01-18T09:23:49.114Z,10.10
2023-01-18T09:26:51.423Z,11.13
2023-01-18T09:29:53.086Z,10.10
2023-01-18T09:32:54.736Z,11.03
2023-01-18T09:35:57.290Z,6.90
2023-01-18T09:38:58.904Z,8.33
2023-01-18T09:42:01.626Z,8.80
2023-01-18T09:45:03.789Z,11.43
2023-01-18T09:48:06.925Z,13.03
2023-01-18T09:51:37.959Z,6.90
2023-01-18T09:54:45.885Z,7.17
2023-01-18T09:57:59.045Z,8.73
2023-01-18T10:01:13.146Z,5.67
2023-01-18T10:04:20.855Z,9.43
2023-01-18T10:07:24.217Z,10.87
2023-01-18T10:10:26.236Z,9.97
2023-01-18T10:13:37.972Z,9.83
2023-01-18T10:16:39.630Z,13.60
2023-01-18T10:19:41.449Z,9.47
2023-01-18T10:22:46.118Z,9.67
2023-01-18T10:25:55.393Z,10.67
2023-01-18T10:29:02.247Z,8.83
2023-01-18T10:32:17.757Z,9.33
2023-01-18T10:35:39.563Z,8.83
2023-01-18T10:38:41.311Z,8.17
2023-01-18T10:41:43.341Z,6.97
2023-01-18T10:44:45.241Z,16.73
2023-01-18T10:47:51.105Z,5.93
2023-01-18T10:50:54.212Z,5.67
2023-01-18T10:53:56.352Z,7.50
2023-01-18T10:57:01.919Z,6.17
2023-01-18T11:00:12.476Z,6.13
2023-01-18T11:03:14.949Z,4.53
2023-01-18T11:06:17.285Z,10.73
2023-01-18T11:09:37.568Z,5.57
2023-01-18T11:12:43.467Z,6.60
2023-01-18T11:15:45.068Z,6.23
2023-01-18T11:18:59.606Z,3.63
2023-01-18T11:22:01.398Z,5.73
2023-01-18T11:25:03.631Z,6.53
2023-01-18T11:28:09.606Z,6.43
2023-01-18T11:31:13.200Z,2.90
2023-01-18T11:34:29.109Z,6.80
2023-01-18T11:37:32.704Z,5.13
2023-01-18T11:40:34.910Z,3.33
2023-01-18T11:43:37.946Z,9.93
2023-01-18T11:46:44.136Z,5.80
2023-01-18T11:49:49.444Z,4.93
2023-01-18T11:52:53.717Z,6.13
2023-01-18T11:56:02.118Z,6.43
2023-01-18T11:59:04.751Z,7.57
2023-01-18T12:02:06.425Z,11.00
2023-01-18T12:05:28.293Z,6.57
2023-01-18T12:08:40.394Z,7.40
2023-01-18T12:12:13.515Z,3.60
2023-01-18T12:15:20.790Z,6.97
2023-01-18T12:18:40.958Z,4.83
2023-01-18T12:22:04.356Z,8.40
2023-01-18T12:25:18.495Z,4.27
2023-01-18T12:28:38.879Z,8.33
2023-01-18T12:31:58.140Z,8.10
2023-01-18T12:35:24.611Z,10.10
2023-01-18T12:38:31.691Z,7.10
2023-01-18T12:41:40.732Z,3.73
2023-01-18T12:45:08.784Z,8.27
2023-01-18T12:48:20.141Z,7.53
2023-01-18T12:51:23.953Z,6.47
2023-01-18T12:54:27.996Z,9.93
2023-01-18T12:57:29.982Z,5.93
2023-01-18T13:00:38.646Z,7.23
2023-01-18T13:03:45.203Z,4.00
2023-01-18T13:06:49.244Z,4.77
2023-01-18T13:09:51.147Z,7.50
2023-01-18T13:12:54.097Z,11.73
2023-01-18T13:15:55.707Z,9.43
2023-01-18T13:19:00.863Z,10.60
2023-01-18T13:22:19.741Z,11.20
2023-01-18T13:25:26.347Z,6.03
2023-01-18T13:28:28.108Z,10.53
2023-01-18T13:31:30.786Z,9.63
2023-01-18T13:34:47.660Z,14.20
2023-01-18T13:37:49.838Z,10.40
2023-01-18T13:40:56.465Z,14.63
2023-01-18T13:44:02.074Z,8.13
2023-01-18T13:47:23.616Z,14.87
2023-01-18T13:50:28.376Z,11.97
2023-01-18T13:53:46.721Z,11.80
2023-01-18T13:57:09.544Z,16.27
2023-01-18T14:00:21.556Z,15.93
2023-01-18T14:03:28.137Z,12.00
2023-01-18T14:06:35.785Z,12.40
2023-01-18T14:09:40.126Z,19.93
2023-01-18T14:12:55.563Z,14.37
2023-01-18T14:16:00.207Z,14.40
2023-01-18T14:19:17.198Z,16.20
2023-01-18T14:22:27.751Z,22.33
2023-01-18T14:25:39.261Z,16.80
2023-01-18T14:28:40.849Z,19.73
2023-01-18T14:32:00.916Z,19.63
2023-01-18T14:35:04.378Z,25.30
2023-01-18T14:38:17.139Z,18.17
2023-01-18T14:41:19.765Z,29.00
2023-01-18T14:44:22.550Z,27.43
2023-01-18T14:47:26.265Z,28.27
2023-01-18T14:50:32.559Z,19.83
2023-01-18T14:53:48.014Z,18.03
2023-01-18T14:56:49.683Z,21.07
2023-01-18T14:59:52.809Z,17.40
2023-01-18T15:02:54.503Z,22.23
2023-01-18T15:05:58.949Z,29.10
2023-01-18T15:09:01.409Z,13.60
2023-01-18T15:12:05.501Z,22.83
2023-01-18T15:15:09.013Z,12.07
2023-01-18T15:18:20.929Z,18.43
2023-01-18T15:21:24.467Z,15.13
2023-01-18T15:24:26.129Z,23.80
2023-01-18T15:27:33.974Z,20.33
2023-01-18T15:30:35.656Z,17.10
2023-01-18T15:33:37.706Z,20.10
2023-01-18T15:36:39.390Z,21.27
2023-01-18T15:39:51.118Z,23.77
2023-01-18T15:43:09.677Z,23.67
2023-01-18T15:46:13.051Z,19.23
2023-01-18T15:49:15.361Z,17.07
2023-01-18T15:52:33.789Z,25.73
2023-01-18T15:55:47.249Z,30.17
2023-01-18T15:58:51.229Z,30.20
2023-01-18T16:02:15.089Z,37.03
2023-01-18T16:05:21.611Z,27.43
2023-01-18T16:08:23.873Z,20.90
2023-01-18T16:11:26.560Z,25.00
2023-01-18T16:14:28.233Z,25.83
2023-01-18T16:17:31.962Z,35.17
2023-01-18T16:20:35.127Z,25.80
2023-01-18T16:23:36.829Z,36.27
2023-01-18T16:26:40.546Z,26.97
2023-01-18T16:29:44.844Z,29.60
2023-01-18T16:32:50.069Z,29.60
2023-01-18T16:35:51.858Z,31.67
2023-01-18T16:38:53.490Z,34.77
2023-01-18T16:41:57.285Z,37.80
2023-01-18T16:44:59.311Z,33.47
2023-01-18T16:48:01.521Z,46.40
2023-01-18T16:51:04.671Z,32.13
2023-01-18T16:54:06.835Z,36.70
2023-01-18T16:57:15.205Z,47.40
2023-01-18T17:00:18.129Z,46.27
2023-01-18T17:03:19.793Z,49.90
2023-01-18T17:06:23.028Z,42.73
2023-01-18T17:09:25.974Z,49.90
2023-01-18T17:12:27.602Z,51.97
2023-01-18T17:15:30.825Z,53.67
2023-01-18T17:18:32.494Z,51.67
2023-01-18T17:21:34.795Z,52.17
2023-01-18T17:24:36.731Z,56.60
2023-01-18T17:27:38.539Z,50.07
2023-01-18T17:30:41.544Z,47.97
2023-01-18T17:33:43.917Z,61.03
2023-01-18T17:36:45.985Z,56.67
2023-01-18T17:40:02.449Z,48.93
2023-01-18T17:43:04.862Z,49.93
2023-01-18T17:46:10.754Z,54.53
2023-01-18T17:49:12.416Z,53.73
2023-01-18T17:52:14.082Z,57.70
2023-01-18T17:55:17.872Z,62.97
2023-01-18T17:58:21.202Z,56.70
2023-01-18T18:01:26.438Z,52.27
2023-01-18T18:04:29.776Z,56.43
2023-01-18T18:07:31.429Z,54.90
2023-01-18T18:10:33.024Z,52.37
2023-01-18T18:13:34.608Z,69.50
2023-01-18T18:16:42.754Z,60.00
2023-01-18T18:19:44.999Z,77.33
2023-01-18T18:22:46.702Z,58.33
2023-01-18T18:25:48.806Z,61.33
2023-01-18T18:28:50.436Z,59.10
2023-01-18T18:31:52.363Z,67.57
2023-01-18T18:34:54.185Z,72.83
2023-01-18T18:37:57.125Z,58.43
2023-01-18T18:41:05.720Z,55.30
2023-01-18T18:44:07.373Z,59.53
2023-01-18T18:47:10.079Z,59.30
2023-01-18T18:50:11.762Z,56.70
2023-01-18T18:53:14.112Z,77.43
2023-01-18T18:56:15.708Z,68.23
2023-01-18T18:59:17.371Z,77.60
2023-01-18T19:02:19.427Z,73.37
2023-01-18T19:05:21.132Z,68.53
2023-01-18T19:08:23.815Z,65.90
2023-01-18T19:11:25.439Z,72.13
2023-01-18T19:14:27.162Z,69.87
2023-01-18T19:17:31.436Z,55.23
2023-01-18T19:20:33.475Z,68.47
2023-01-18T19:23:35.340Z,46.03
2023-01-18T19:26:37.087Z,56.40
2023-01-18T19:29:39.375Z,64.50
2023-01-18T19:32:41.145Z,57.60
2023-01-18T19:35:44.789Z,67.43
2023-01-18T19:38:50.695Z,65.60
2023-01-18T19:41:54.364Z,62.90
2023-01-18T19:44:59.230Z,67.93
2023-01-18T19:48:01.844Z,70.47
2023-01-18T19:51:12.942Z,69.40
2023-01-18T19:54:23.324Z,64.73
2023-01-18T19:57:26.412Z,62.70
2023-01-18T20:00:29.054Z,56.00
2023-01-18T20:03:30.643Z,65.10
2023-01-18T20:06:32.882Z,59.17
2023-01-18T20:09:42.833Z,63.90
2023-01-18T20:12:45.119Z,51.83
2023-01-18T20:15:50.693Z,63.07
2023-01-18T20:18:53.052Z,57.13
2023-01-18T20:21:54.871Z,55.80
2023-01-18T20:24:56.516Z,62.67
2023-01-18T20:27:58.150Z,70.40
2023-01-18T20:31:02.892Z,54.43
2023-01-18T20:34:04.983Z,56.33
2023-01-18T20:37:06.698Z,65.13
2023-01-18T20:40:08.742Z,45.87
2023-01-18T20:43:10.360Z,59.83
2023-01-18T20:46:12.274Z,48.57
2023-01-18T20:49:14.086Z,44.83
2023-01-18T20:52:15.801Z,51.63
2023-01-18T20:55:18.847Z,62.63
2023-01-18T20:58:21.505Z,51.13
2023-01-18T21:01:23.218Z,52.50
2023-01-18T21:04:25.463Z,51.23
2023-01-18T21:07:28.451Z,42.27
2023-01-18T21:10:38.636Z,47.47
2023-01-18T21:13:40.459Z,40.00
2023-01-18T21:16:42.663Z,37.73
2023-01-18T21:19:46.090Z,43.57
2023-01-18T21:22:47.822Z,49.17
2023-01-18T21:25:50.316Z,41.57
2023-01-18T21:28:51.973Z,39.83
2023-01-18T21:31:53.634Z,37.00
2023-01-18T21:34:55.610Z,41.00
2023-01-18T21:37:59.745Z,37.67
2023-01-18T21:41:21.539Z,41.93
2023-01-18T21:44:41.939Z,35.63
2023-01-18T21:47:43.618Z,33.87
2023-01-18T21:51:03.679Z,45.30
2023-01-18T21:54:17.221Z,35.17
2023-01-18T21:57:19.736Z,32.57
2023-01-18T22:00:21.516Z,36.00
2023-01-18T22:03:23.152Z,37.73
2023-01-18T22:06:24.748Z,31.80
2023-01-18T22:09:27.248Z,32.47
2023-01-18T22:12:28.911Z,30.77
2023-01-18T22:15:30.472Z,36.87
2023-01-18T22:18:32.148Z,33.63
2023-01-18T22:21:34.107Z,32.73
2023-01-18T22:24:35.763Z,31.17
2023-01-18T22:27:37.414Z,37.97
2023-01-18T22:30:39.249Z,38.07
2023-01-18T22:33:40.970Z,37.90
2023-01-18T22:36:42.624Z,31.47
2023-01-18T22:39:44.325Z,29.47
2023-01-18T22:42:45.933Z,37.30
2023-01-18T22:45:54.220Z,36.97
2023-01-18T22:48:55.868Z,36.13
2023-01-18T22:51:57.583Z,40.83
2023-01-18T22:54:59.252Z,38.50
2023-01-18T22:58:01.345Z,36.30
2023-01-18T23:01:03.595Z,37.63
2023-01-18T23:04:05.330Z,36.57
2023-01-18T23:07:07.090Z,32.33
2023-01-18T23:10:09.248Z,40.50
2023-01-18T23:13:11.036Z,31.40
2023-01-18T23:16:32.841Z,30.53
2023-01-18T23:19:34.608Z,31.57
2023-01-18T23:22:36.598Z,41.53
2023-01-18T23:25:38.188Z,38.03
2023-01-18T23:28:42.727Z,28.03
2023-01-18T23:31:44.460Z,31.63
2023-01-18T23:34:47.870Z,31.93
2023-01-18T23:37:49.515Z,32.80
2023-01-18T23:41:09.709Z,34.50
2023-01-18T23:44:29.922Z,30.47
2023-01-18T23:47:50.298Z,31.30
2023-01-18T23:51:10.646Z,36.53
2023-01-18T23:54:18.652Z,35.13
2023-01-18T23:57:20.227Z,40.53
